createdAt,value
2019-02-25T00:02:39.815Z,103533.64
2019-02-25T00:07:30.947Z,103536.77
2019-02-25T00:12:22.612Z,103540.38
2019-02-25T00:17:12.978Z,103533.81
2019-02-25T00:22:04.050Z,103530.87
2019-02-25T00:26:54.950Z,103516.94
2019-02-25T00:31:47.001Z,103515.55
2019-02-25T00:36:38.994Z,103509.66
2019-02-25T00:41:30.850Z,103508.08
2019-02-25T00:46:22.570Z,103504.22
2019-02-25T00:51:14.390Z,103510.45
2019-02-25T00:56:05.966Z,103510.38
2019-02-25T01:00:57.912Z,103517.53
2019-02-25T01:05:49.482Z,103522.86
2019-02-25T01:10:41.392Z,103534.33
2019-02-25T01:15:32.808Z,103526.16
2019-02-25T01:20:22.715Z,103524.41
2019-02-25T01:25:13.421Z,103526.40
2019-02-25T01:30:05.145Z,103527.86
2019-02-25T01:34:57.267Z,103523.63
2019-02-25T01:39:49.148Z,103519.67
2019-02-25T01:44:40.848Z,103518.02
2019-02-25T01:49:32.596Z,103518.00
2019-02-25T01:54:24.621Z,103507.92
2019-02-25T01:59:15.610Z,103505.16
2019-02-25T02:04:07.493Z,103495.94
2019-02-25T02:08:59.152Z,103503.27
2019-02-25T02:13:49.570Z,103494.42
2019-02-25T02:18:41.565Z,103485.23
2019-02-25T02:23:33.462Z,103483.90
2019-02-25T02:28:25.684Z,103489.72
2019-02-25T02:33:17.312Z,103497.24
2019-02-25T02:38:09.113Z,103499.78
2019-02-25T02:43:00.738Z,103499.05
2019-02-25T02:47:52.408Z,103497.16
2019-02-25T02:52:44.445Z,103495.28
2019-02-25T02:57:36.231Z,103499.45
2019-02-25T03:02:28.143Z,103501.66
2019-02-25T03:07:19.735Z,103494.41
2019-02-25T03:12:11.569Z,103497.27
2019-02-25T03:17:03.234Z,103492.63
2019-02-25T03:21:54.887Z,103493.36
2019-02-25T03:26:46.840Z,103495.67
2019-02-25T03:31:38.624Z,103497.91
2019-02-25T03:36:29.112Z,103498.44
2019-02-25T03:41:19.506Z,103495.26
2019-02-25T03:46:11.177Z,103496.19
2019-02-25T08:01:14.108Z,103544.82
2019-02-25T08:06:06.676Z,103548.85
2019-02-25T08:10:58.505Z,103548.06
2019-02-25T08:15:50.322Z,103550.06
2019-02-25T08:20:41.809Z,103556.22
2019-02-25T08:25:33.461Z,103551.67
2019-02-25T08:30:24.805Z,103554.19
2019-02-25T08:35:17.477Z,103561.16
2019-02-25T08:40:09.169Z,103567.50
2019-02-25T08:45:01.105Z,103562.11
2019-02-25T08:49:53.636Z,103566.28
2019-02-25T08:54:46.129Z,103570.56
2019-02-25T08:59:37.739Z,103569.92
2019-02-25T09:04:29.812Z,103566.70
2019-02-25T09:09:22.078Z,103568.14
2019-02-25T09:14:13.394Z,103570.53
2019-02-25T09:19:04.739Z,103568.68
2019-02-25T09:23:56.422Z,103562.55
2019-02-25T09:28:49.086Z,103556.64
2019-02-25T09:33:41.375Z,103567.87
2019-02-25T09:38:33.825Z,103568.05
2019-02-25T09:43:24.996Z,103569.22
2019-02-25T09:48:17.955Z,103575.97
2019-02-25T09:53:09.970Z,103566.86
2019-02-25T09:58:04.771Z,103568.31
2019-02-25T10:02:56.031Z,103571.58
2019-02-25T10:07:47.231Z,103564.44
2019-02-25T10:12:39.154Z,103558.45
2019-02-25T10:17:30.965Z,103554.83
2019-02-25T10:22:22.425Z,103557.95
2019-02-25T10:27:14.469Z,103542.09
2019-02-25T10:32:09.716Z,103545.09
2019-02-25T10:37:00.764Z,103548.08
2019-02-25T10:42:02.163Z,103540.03
2019-02-25T10:46:52.596Z,103544.80
2019-02-25T10:51:47.013Z,103543.27
2019-02-25T10:56:38.919Z,103533.78
2019-02-25T11:01:31.033Z,103529.91
2019-02-25T11:06:27.213Z,103520.21
2019-02-25T11:11:27.696Z,103513.09
2019-02-25T11:16:21.895Z,103499.59
2019-02-25T11:21:13.689Z,103491.81
2019-02-25T11:26:05.500Z,103491.85
2019-02-25T11:31:13.280Z,103486.20
2019-02-25T11:36:23.154Z,103478.81
2019-02-25T11:41:13.011Z,103475.50
2019-02-25T11:46:03.144Z,103472.19
2019-02-25T11:50:55.195Z,103458.61
2019-02-25T11:55:46.700Z,103456.34
2019-02-25T12:00:41.163Z,103445.00
2019-02-25T12:05:32.504Z,103443.02
2019-02-25T12:10:23.743Z,103450.98
2019-02-25T12:15:15.618Z,103438.84
2019-02-25T12:20:07.951Z,103435.77
2019-02-25T12:24:59.634Z,103422.94
2019-02-25T12:29:51.981Z,103403.53
2019-02-25T12:34:44.438Z,103398.38
2019-02-25T12:39:37.014Z,103384.99
2019-02-25T12:44:28.638Z,103378.62
2019-02-25T12:49:20.586Z,103355.11
2019-02-25T12:54:13.583Z,103338.33
2019-02-25T12:59:07.103Z,103329.66
2019-02-25T13:03:58.831Z,103313.61
2019-02-25T13:08:51.159Z,103291.62
2019-02-25T13:13:44.104Z,103285.27
2019-02-25T13:18:36.824Z,103284.55
2019-02-25T13:23:29.711Z,103275.02
2019-02-25T13:28:33.419Z,103271.81
2019-02-25T13:33:23.984Z,103282.81
2019-02-25T13:38:16.079Z,103270.72
2019-02-25T13:43:08.961Z,103275.36
2019-02-25T13:48:01.892Z,103267.27
2019-02-25T13:52:54.033Z,103263.48
2019-02-25T13:57:48.640Z,103259.55
2019-02-25T14:02:40.690Z,103249.26
2019-02-25T14:07:35.129Z,103256.80
2019-02-25T14:12:26.797Z,103262.00
2019-02-25T14:17:19.773Z,103264.67
2019-02-25T14:22:12.462Z,103270.80
2019-02-25T14:27:05.174Z,103269.91
2019-02-25T14:31:58.020Z,103275.62
2019-02-25T14:37:01.945Z,103275.40
2019-02-25T14:42:06.686Z,103278.75
2019-02-25T14:47:20.352Z,103274.63
2019-02-25T14:52:06.310Z,103280.59
2019-02-25T14:56:58.866Z,103285.01
2019-02-25T15:01:52.733Z,103293.00
2019-02-25T15:06:44.150Z,103290.58
2019-02-25T15:11:36.071Z,103300.83
2019-02-25T15:16:28.070Z,103302.36
2019-02-25T15:21:20.278Z,103305.38
2019-02-25T15:26:14.952Z,103305.45
2019-02-25T15:31:17.080Z,103302.64
2019-02-25T15:36:07.558Z,103303.84
2019-02-25T15:41:11.260Z,103303.42
2019-02-25T15:46:01.541Z,103303.19
2019-02-25T15:51:01.402Z,103298.95
2019-02-25T15:55:52.645Z,103300.23
2019-02-25T16:00:46.552Z,103302.45
2019-02-25T16:05:40.381Z,103306.48
2019-02-25T16:10:32.168Z,103305.58
2019-02-25T16:15:24.781Z,103315.66
2019-02-25T16:20:21.140Z,103311.91
2019-02-25T16:25:13.222Z,103319.98
2019-02-25T16:30:07.376Z,103322.30
2019-02-25T16:35:07.780Z,103324.67
2019-02-25T16:40:10.969Z,103325.85
2019-02-25T16:45:13.972Z,103333.79
2019-02-25T16:50:03.941Z,103339.45
2019-02-25T16:54:56.082Z,103343.62
2019-02-25T16:59:48.513Z,103350.41
2019-02-25T17:04:40.680Z,103364.03
2019-02-25T17:09:42.955Z,103358.54
2019-02-25T17:14:34.440Z,103362.33
2019-02-25T17:19:26.472Z,103365.14
2019-02-25T17:24:21.261Z,103372.88
2019-02-25T17:29:15.816Z,103373.06
2019-02-25T17:34:07.658Z,103376.92
2019-02-25T17:38:59.994Z,103380.98
2019-02-25T17:43:58.739Z,103375.02
2019-02-25T17:48:50.007Z,103377.12
2019-02-25T17:53:43.779Z,103373.81
2019-02-25T17:58:46.680Z,103370.53
2019-02-25T18:03:45.607Z,103367.56
2019-02-25T18:08:40.608Z,103369.11
2019-02-25T18:13:36.370Z,103361.94
2019-02-25T18:18:29.368Z,103364.38
2019-02-25T18:23:23.334Z,103361.06
2019-02-25T18:28:23.321Z,103357.41
2019-02-25T18:33:13.711Z,103356.89
2019-02-25T18:38:10.740Z,103352.09
2019-02-25T18:43:07.554Z,103356.59
2019-02-25T18:47:58.281Z,103353.70
2019-02-25T18:53:01.721Z,103358.64
2019-02-25T18:57:53.658Z,103355.66
2019-02-25T19:02:44.961Z,103353.69
2019-02-25T19:07:37.103Z,103362.44
2019-02-25T19:12:28.962Z,103357.69
2019-02-25T19:17:29.757Z,103357.08
2019-02-25T19:22:21.710Z,103363.17
2019-02-25T19:27:14.683Z,103361.10
2019-02-25T19:32:06.382Z,103363.83
2019-02-25T19:37:12.125Z,103360.60
2019-02-25T19:42:04.055Z,103363.13
2019-02-25T19:46:57.547Z,103356.36
2019-02-25T19:51:53.778Z,103354.92
2019-02-25T19:56:57.788Z,103343.50
2019-02-25T20:01:47.413Z,103345.50
2019-02-25T20:06:47.098Z,103348.41
2019-02-25T20:11:39.170Z,103342.77
2019-02-25T20:16:33.777Z,103336.22
2019-02-25T20:21:31.842Z,103332.66
2019-02-25T20:26:27.793Z,103338.64
2019-02-25T20:31:18.689Z,103332.36
2019-02-25T20:36:10.460Z,103331.20
2019-02-25T20:41:04.216Z,103325.88
2019-02-25T20:46:08.504Z,103317.80
2019-02-25T20:51:12.249Z,103312.66
2019-02-25T20:56:01.653Z,103303.05
2019-02-25T21:00:53.539Z,103301.83
2019-02-25T21:05:46.231Z,103296.27
2019-02-25T21:10:38.138Z,103289.08
2019-02-25T21:15:33.183Z,103291.03
2019-02-25T21:20:32.201Z,103290.70
2019-02-25T21:25:34.238Z,103283.38
2019-02-25T21:30:27.593Z,103287.11
2019-02-25T21:35:19.118Z,103288.21
2019-02-25T21:40:10.874Z,103290.09
2019-02-25T21:45:04.034Z,103296.45
2019-02-25T21:50:09.487Z,103290.92
2019-02-25T21:55:11.472Z,103289.98
2019-02-25T22:00:06.353Z,103284.79
2019-02-25T22:04:56.798Z,103284.23
2019-02-25T22:09:48.622Z,103287.06
2019-02-25T22:14:47.700Z,103281.96
2019-02-25T22:19:50.055Z,103289.30
2019-02-25T22:24:42.165Z,103295.69
2019-02-25T22:29:42.676Z,103302.66
2019-02-25T22:34:33.271Z,103318.73
2019-02-25T22:39:32.684Z,103323.22
2019-02-25T22:44:33.514Z,103322.41
2019-02-25T22:49:32.956Z,103309.45
2019-02-25T22:54:23.272Z,103311.26
2019-02-25T22:59:14.846Z,103305.05
2019-02-25T23:04:06.668Z,103309.74
2019-02-25T23:08:58.693Z,103316.26
2019-02-25T23:13:55.706Z,103315.69
2019-02-25T23:18:48.646Z,103322.28
2019-02-25T23:23:41.763Z,103313.94
2019-02-25T23:28:32.984Z,103308.72
2019-02-25T23:33:26.257Z,103300.65
2019-02-25T23:38:17.497Z,103302.13
2019-02-25T23:43:19.417Z,103295.84
2019-02-25T23:48:13.065Z,103291.46
2019-02-25T23:53:04.005Z,103283.12
2019-02-25T23:57:55.899Z,103290.45
